Time;durP1;ratioP1;P1;durP2;ratioP2;P2;SDS_P1;SDS_P2;PMS_P1;PMS_P2;Temp;Humidity;BMP_temperature;BMP_pressure;BME280_temperature;BME280_humidity;BME280_pressure;Samples;Min_cycle;Max_cycle;Signal;HPM_P1;HPM_P2
2022/12/12 00:00:34;;;;;;;6.82;4.03;;;18.30;1.00;;;;;;4804407;29;20051;-49
2022/12/12 00:03:01;;;;;;;7.03;5.15;;;18.20;1.00;;;;;;4804633;29;20133;-44
2022/12/12 00:05:28;;;;;;;7.47;4.32;;;18.20;1.00;;;;;;4807739;29;20059;-44
2022/12/12 00:07:55;;;;;;;6.80;4.70;;;18.10;1.00;;;;;;4807796;29;20125;-46
2022/12/12 00:10:22;;;;;;;6.32;4.15;;;18.10;1.00;;;;;;4807684;29;20472;-45
2022/12/12 00:12:48;;;;;;;7.80;4.68;;;18.00;1.00;;;;;;4807416;29;20051;-48
2022/12/12 00:15:15;;;;;;;5.57;3.95;;;18.00;1.00;;;;;;4807689;29;20088;-44
2022/12/12 00:17:42;;;;;;;8.55;4.22;;;18.00;1.00;;;;;;4807720;29;20134;-45
2022/12/12 00:20:09;;;;;;;6.75;4.53;;;17.90;1.00;;;;;;4807523;29;20050;-46
2022/12/12 00:22:36;;;;;;;6.30;4.53;;;17.90;1.00;;;;;;4807478;29;20519;-47
2022/12/12 00:25:03;;;;;;;7.13;4.53;;;17.80;1.00;;;;;;4807621;29;20047;-47
2022/12/12 00:27:31;;;;;;;7.57;4.07;;;17.80;1.00;;;;;;4807575;29;20077;-44
2022/12/12 00:29:58;;;;;;;6.68;4.93;;;17.80;1.00;;;;;;4807473;29;20480;-43
2022/12/12 00:32:25;;;;;;;9.38;4.38;;;17.70;1.00;;;;;;4791214;29;20047;-46
2022/12/12 00:34:52;;;;;;;6.10;4.43;;;17.70;1.00;;;;;;4807496;29;20046;-49
2022/12/12 00:37:18;;;;;;;4.88;3.40;;;17.60;1.00;;;;;;4807194;29;20495;-45
2022/12/12 00:39:45;;;;;;;6.32;3.97;;;17.60;1.00;;;;;;4807242;29;20141;-44
2022/12/12 00:42:12;;;;;;;6.88;4.63;;;17.50;1.00;;;;;;4807162;29;20449;-49
2022/12/12 00:44:39;;;;;;;7.57;5.30;;;17.50;1.00;;;;;;4807224;29;20054;-44
2022/12/12 00:47:06;;;;;;;5.47;4.07;;;17.50;1.00;;;;;;4790988;29;20054;-44
2022/12/12 00:49:33;;;;;;;6.32;4.38;;;17.40;1.00;;;;;;4807326;29;20103;-48
2022/12/12 00:52:00;;;;;;;6.88;4.53;;;17.40;1.00;;;;;;4807184;29;20038;-45
2022/12/12 00:54:27;;;;;;;5.97;4.53;;;17.40;1.00;;;;;;4806844;29;20070;-47
2022/12/12 00:56:54;;;;;;;6.07;4.32;;;17.30;1.00;;;;;;4806942;29;20043;-47
2022/12/12 00:59:21;;;;;;;5.78;4.15;;;17.30;1.00;;;;;;4815591;29;20043;-47
2022/12/12 01:01:48;;;;;;;6.50;4.57;;;17.20;1.00;;;;;;4824933;29;20039;-47
2022/12/12 01:04:15;;;;;;;6.45;4.03;;;17.20;1.00;;;;;;4824651;29;20498;-46
2022/12/12 01:06:42;;;;;;;7.35;4.22;;;17.20;1.00;;;;;;4824930;29;20526;-48
2022/12/12 01:09:08;;;;;;;6.05;4.57;;;17.10;1.00;;;;;;4824798;29;20415;-46
2022/12/12 01:11:35;;;;;;;6.50;4.20;;;17.10;1.00;;;;;;4824757;29;20392;-48
2022/12/12 01:14:02;;;;;;;5.70;4.18;;;17.10;1.00;;;;;;4823992;29;20392;-46
2022/12/12 01:16:29;;;;;;;5.55;3.97;;;17.00;1.00;;;;;;4824008;29;20456;-45
2022/12/12 01:18:56;;;;;;;8.40;4.60;;;17.00;1.00;;;;;;4808258;29;20491;-44
2022/12/12 01:21:24;;;;;;;6.78;4.82;;;16.90;1.00;;;;;;4824759;29;20537;-45
2022/12/12 01:23:50;;;;;;;5.80;4.22;;;16.90;1.00;;;;;;4824526;29;20476;-44
2022/12/12 01:26:20;;;;;;;5.45;3.80;;;16.90;1.00;;;;;;4824574;29;20099;-45
2022/12/12 01:28:48;;;;;;;6.20;3.80;;;16.80;1.00;;;;;;4824521;29;20053;-46
2022/12/12 01:31:15;;;;;;;6.75;4.03;;;16.80;1.00;;;;;;4824506;29;20523;-44
2022/12/12 01:33:45;;;;;;;8.35;4.60;;;16.80;1.00;;;;;;4824336;29;20403;-45
2022/12/12 01:36:15;;;;;;;6.72;3.92;;;16.80;1.00;;;;;;4824501;29;20072;-45
2022/12/12 01:38:46;;;;;;;7.15;4.22;;;16.70;1.00;;;;;;4824384;29;20435;-47
2022/12/12 01:41:14;;;;;;;8.13;4.38;;;16.70;1.00;;;;;;4824165;29;20061;-44
2022/12/12 01:43:41;;;;;;;7.60;5.20;;;16.70;1.00;;;;;;4824139;29;20099;-46
2022/12/12 01:46:32;;;;;;;6.30;4.60;;;16.60;1.00;;;;;;4824338;29;20047;-46
2022/12/12 01:49:18;;;;;;;6.40;4.35;;;16.60;1.00;;;;;;4824333;29;20418;-45
2022/12/12 01:51:46;;;;;;;6.45;4.78;;;16.60;1.00;;;;;;4824142;29;20070;-45
2022/12/12 01:54:18;;;;;;;7.47;4.78;;;16.60;1.00;;;;;;4807642;29;20053;-44
2022/12/12 01:56:48;;;;;;;6.25;4.72;;;16.50;1.00;;;;;;4824136;29;20078;-44
2022/12/12 01:59:17;;;;;;;7.00;4.75;;;16.50;1.00;;;;;;4807490;29;20099;-43
2022/12/12 02:01:44;;;;;;;7.10;4.85;;;16.50;1.00;;;;;;4824487;29;20107;-43
2022/12/12 02:04:14;;;;;;;6.78;4.28;;;16.50;1.00;;;;;;4823750;29;20054;-44
2022/12/12 02:06:41;;;;;;;6.43;4.38;;;16.40;1.00;;;;;;4824133;29;20125;-46
2022/12/12 02:09:11;;;;;;;6.78;4.72;;;16.40;1.00;;;;;;4824056;29;20103;-45
2022/12/12 02:11:45;;;;;;;6.20;4.70;;;16.30;1.00;;;;;;4823990;29;20039;-45
2022/12/12 02:14:16;;;;;;;6.85;4.38;;;16.30;1.00;;;;;;4823732;29;20058;-47
2022/12/12 02:17:15;;;;;;;6.85;4.22;;;16.30;1.00;;;;;;4824022;29;20140;-47
2022/12/12 02:19:47;;;;;;;7.05;4.85;;;16.30;1.00;;;;;;4808521;24;20507;-45
2022/12/12 02:22:37;;;;;;;6.13;4.25;;;16.30;1.00;;;;;;4805195;29;20057;-44
2022/12/12 02:25:04;;;;;;;6.90;4.57;;;16.20;1.00;;;;;;4779875;29;20070;-48
2022/12/12 02:27:50;;;;;;;7.95;4.60;;;16.20;1.00;;;;;;4805301;29;20495;-46
2022/12/12 02:30:21;;;;;;;7.05;4.60;;;16.20;1.00;;;;;;4805386;29;20107;-45
2022/12/12 02:33:18;;;;;;;7.93;4.65;;;16.10;1.00;;;;;;4805245;29;20129;-49
2022/12/12 02:36:09;;;;;;;6.38;4.65;;;16.10;1.00;;;;;;4805354;29;20047;-50
2022/12/12 02:38:45;;;;;;;5.55;4.10;;;16.00;1.00;;;;;;4805231;29;20082;-46
2022/12/12 02:41:25;;;;;;;6.82;5.05;;;16.00;1.00;;;;;;4805637;29;20035;-48
2022/12/12 02:44:17;;;;;;;6.50;3.88;;;16.00;1.00;;;;;;4805053;29;20057;-45
2022/12/12 02:47:01;;;;;;;6.15;4.45;;;16.00;1.00;;;;;;4805227;29;20066;-46
2022/12/12 02:49:38;;;;;;;6.25;4.75;;;16.00;1.00;;;;;;4805362;29;20443;-46
2022/12/12 02:52:08;;;;;;;6.70;4.50;;;15.90;1.00;;;;;;4805118;29;20042;-45
2022/12/12 02:54:34;;;;;;;7.20;4.50;;;15.90;1.00;;;;;;4804998;29;20131;-48
2022/12/12 02:57:02;;;;;;;5.63;4.10;;;15.90;1.00;;;;;;4804934;29;20126;-48
2022/12/12 02:59:36;;;;;;;7.75;5.03;;;15.80;1.00;;;;;;4804915;29;20053;-52
2022/12/12 03:02:14;;;;;;;8.38;5.00;;;15.80;1.00;;;;;;4804843;29;20051;-46
2022/12/12 03:08:09;;;;;;;7.35;4.80;;;15.80;1.00;;;;;;4804941;29;20511;-47
2022/12/12 03:10:51;;;;;;;6.43;3.97;;;15.70;1.00;;;;;;4804700;29;20047;-48
2022/12/12 03:13:30;;;;;;;9.55;5.47;;;15.70;1.00;;;;;;4804571;29;20081;-46
2022/12/12 03:16:17;;;;;;;7.60;4.88;;;15.70;1.00;;;;;;4804849;29;20121;-47
2022/12/12 03:18:55;;;;;;;6.63;4.18;;;15.60;1.00;;;;;;4804463;29;20039;-46
2022/12/12 03:21:36;;;;;;;7.57;4.57;;;15.60;1.00;;;;;;4804850;29;20039;-45
2022/12/12 03:24:22;;;;;;;8.68;4.97;;;15.60;1.00;;;;;;4804535;29;20057;-46
2022/12/12 03:26:52;;;;;;;6.80;4.78;;;15.60;1.00;;;;;;4804743;29;20077;-48
2022/12/12 03:29:42;;;;;;;7.82;5.05;;;15.60;1.00;;;;;;4804595;29;20043;-45
2022/12/12 03:32:18;;;;;;;6.75;3.92;;;15.50;1.00;;;;;;4804631;29;20458;-45
2022/12/12 03:34:51;;;;;;;6.25;4.13;;;15.50;1.00;;;;;;4804765;29;20050;-48
2022/12/12 03:37:25;;;;;;;7.13;4.32;;;15.50;1.00;;;;;;4788404;29;20063;-46
2022/12/12 03:39:57;;;;;;;7.72;5.10;;;15.50;1.00;;;;;;4807650;29;20126;-45
2022/12/12 03:42:31;;;;;;;7.53;4.55;;;15.40;1.00;;;;;;4808190;29;20126;-46
2022/12/12 03:45:04;;;;;;;7.43;4.63;;;15.40;1.00;;;;;;4808169;29;20522;-45
2022/12/12 03:47:38;;;;;;;8.20;5.25;;;15.40;1.00;;;;;;4808391;29;20571;-46
2022/12/12 03:50:11;;;;;;;6.75;3.97;;;15.40;1.00;;;;;;4807982;29;20051;-46
2022/12/12 03:52:47;;;;;;;5.72;3.60;;;15.30;1.00;;;;;;4807820;29;20058;-48
2022/12/12 03:55:33;;;;;;;7.60;4.45;;;15.30;1.00;;;;;;4808222;29;20047;-47
2022/12/12 03:58:08;;;;;;;6.13;4.13;;;15.30;1.00;;;;;;4807977;29;20479;-47
2022/12/12 04:00:37;;;;;;;6.97;3.90;;;15.20;1.00;;;;;;4807854;29;20079;-47
2022/12/12 04:03:19;;;;;;;6.18;3.85;;;15.20;1.00;;;;;;4807631;29;20534;-45
2022/12/12 04:14:49;;;;;;;6.78;3.55;;;15.10;1.00;;;;;;4807476;29;20471;-50
2022/12/12 04:17:21;;;;;;;7.75;4.28;;;15.10;1.00;;;;;;4791339;29;20074;-50
2022/12/12 04:29:03;;;;;;;6.63;4.40;;;15.00;1.00;;;;;;4807464;29;20123;-47
2022/12/12 04:31:32;;;;;;;5.38;3.85;;;15.00;1.00;;;;;;4807529;29;20051;-45
2022/12/12 04:34:06;;;;;;;8.82;5.13;;;15.00;1.00;;;;;;4807023;29;20134;-49
2022/12/12 04:36:34;;;;;;;5.70;3.85;;;15.00;1.00;;;;;;4807387;29;20074;-48
2022/12/12 04:39:02;;;;;;;7.10;4.47;;;15.00;1.00;;;;;;4807234;29;20039;-48
2022/12/12 04:41:32;;;;;;;8.32;4.45;;;15.00;1.00;;;;;;4807285;29;20047;-47
2022/12/12 04:44:00;;;;;;;6.75;4.45;;;14.90;1.00;;;;;;4806991;29;20498;-50
2022/12/12 04:46:32;;;;;;;6.43;4.45;;;14.90;1.00;;;;;;4807132;29;20043;-47
2022/12/12 04:49:13;;;;;;;7.80;4.22;;;14.90;1.00;;;;;;4806953;29;20054;-46
2022/12/12 04:51:45;;;;;;;6.60;4.50;;;14.90;1.00;;;;;;4806972;29;20139;-45
2022/12/12 04:54:19;;;;;;;6.83;3.80;;;14.90;1.00;;;;;;4806885;29;20095;-48
2022/12/12 04:56:51;;;;;;;6.65;4.15;;;14.80;1.00;;;;;;4807016;29;20059;-47
2022/12/12 04:59:18;;;;;;;6.43;4.00;;;14.80;1.00;;;;;;4806846;29;20100;-45
2022/12/12 05:01:56;;;;;;;6.82;4.32;;;14.80;1.00;;;;;;4807190;29;20054;-46
2022/12/12 05:05:04;;;;;;;7.20;4.35;;;14.80;1.00;;;;;;4806719;29;20042;-44
2022/12/12 05:08:13;;;;;;;7.68;4.63;;;14.70;1.00;;;;;;4773403;29;20067;-49
2022/12/12 05:10:44;;;;;;;6.38;3.90;;;14.70;1.00;;;;;;4768606;29;20466;-50
2022/12/12 05:13:20;;;;;;;6.78;4.57;;;14.70;1.00;;;;;;4800084;29;20059;-46
2022/12/12 05:15:51;;;;;;;7.20;4.70;;;14.70;1.00;;;;;;4806691;29;20054;-48
2022/12/12 05:18:18;;;;;;;8.10;4.80;;;14.70;1.00;;;;;;4806542;29;20043;-45
2022/12/12 05:20:45;;;;;;;7.13;3.95;;;14.70;1.00;;;;;;4806534;29;20046;-48
2022/12/12 05:23:11;;;;;;;5.97;3.78;;;14.60;1.00;;;;;;4806346;29;20507;-47
2022/12/12 05:25:38;;;;;;;6.88;4.22;;;14.60;1.00;;;;;;4806440;29;20046;-46
2022/12/12 05:28:05;;;;;;;6.18;4.18;;;14.60;1.00;;;;;;4806379;29;20039;-45
2022/12/12 05:30:32;;;;;;;7.22;4.43;;;14.60;1.00;;;;;;4806366;29;20051;-48
2022/12/12 05:32:59;;;;;;;5.85;4.07;;;14.60;1.00;;;;;;4806182;29;20051;-46
2022/12/12 05:35:26;;;;;;;7.00;3.83;;;14.50;1.00;;;;;;4806268;29;20111;-47
2022/12/12 05:37:53;;;;;;;10.95;5.28;;;14.50;1.00;;;;;;4806380;29;20043;-49
2022/12/12 05:40:21;;;;;;;6.20;4.50;;;14.50;1.00;;;;;;4806108;29;20081;-47
2022/12/12 05:42:48;;;;;;;6.70;4.60;;;14.50;1.00;;;;;;4805851;29;20051;-47
2022/12/12 05:45:15;;;;;;;5.38;3.70;;;14.50;1.00;;;;;;4806239;29;20039;-47
2022/12/12 05:47:41;;;;;;;6.90;4.13;;;14.40;1.00;;;;;;4806431;29;20673;-50
2022/12/12 05:50:09;;;;;;;6.03;4.35;;;14.40;1.00;;;;;;4805991;29;20082;-47
2022/12/12 05:52:36;;;;;;;7.20;4.35;;;14.40;1.00;;;;;;4805870;29;20564;-47
2022/12/12 05:55:03;;;;;;;6.47;3.90;;;14.40;1.00;;;;;;4805930;29;20082;-47
2022/12/12 05:57:30;;;;;;;7.07;4.63;;;14.40;1.00;;;;;;4805986;29;20054;-47
2022/12/12 05:59:57;;;;;;;6.97;4.50;;;14.30;1.00;;;;;;4805903;29;20054;-48
2022/12/12 06:02:23;;;;;;;6.88;4.13;;;14.30;1.00;;;;;;4805107;29;20514;-47
2022/12/12 06:04:50;;;;;;;7.22;3.92;;;14.30;1.00;;;;;;4805714;29;20403;-46
2022/12/12 06:07:17;;;;;;;7.30;4.60;;;14.30;1.00;;;;;;4805841;29;20133;-47
2022/12/12 06:09:44;;;;;;;6.97;4.22;;;14.30;1.00;;;;;;4805548;29;20054;-47
2022/12/12 06:12:11;;;;;;;6.38;4.10;;;14.20;1.00;;;;;;4805650;29;20125;-46
2022/12/12 06:14:37;;;;;;;5.95;4.00;;;14.20;1.00;;;;;;4805553;29;20053;-47
2022/12/12 06:17:05;;;;;;;5.65;4.25;;;14.30;1.00;;;;;;4805663;29;20047;-46
2022/12/12 06:19:31;;;;;;;6.70;4.57;;;14.30;1.00;;;;;;4805385;29;20484;-50
2022/12/12 06:21:58;;;;;;;6.45;3.95;;;14.30;1.00;;;;;;4805569;29;20077;-48
2022/12/12 06:24:25;;;;;;;5.47;3.58;;;14.40;1.00;;;;;;4805929;29;20549;-48
2022/12/12 06:26:52;;;;;;;7.07;4.55;;;14.50;1.00;;;;;;4805468;29;20085;-46
2022/12/12 06:29:19;;;;;;;6.32;3.72;;;14.50;1.00;;;;;;4805376;29;20096;-46
2022/12/12 06:31:46;;;;;;;5.35;3.47;;;14.70;1.00;;;;;;4805465;29;20046;-45
2022/12/12 06:34:13;;;;;;;6.55;4.28;;;14.70;1.00;;;;;;4805004;29;20043;-48
2022/12/12 06:36:40;;;;;;;4.53;3.15;;;14.90;1.00;;;;;;4805264;29;20059;-46
2022/12/12 06:39:07;;;;;;;6.97;3.53;;;14.90;1.00;;;;;;4805071;29;20388;-48
2022/12/12 06:41:33;;;;;;;6.45;3.30;;;15.00;1.00;;;;;;4805329;29;20122;-46
2022/12/12 06:44:00;;;;;;;4.82;3.30;;;15.10;1.00;;;;;;4805105;29;20065;-46
2022/12/12 06:46:28;;;;;;;5.22;3.47;;;15.10;1.00;;;;;;4805184;29;20456;-45
2022/12/12 06:48:55;;;;;;;4.00;3.28;;;15.20;1.00;;;;;;4805109;29;20057;-49
2022/12/12 06:51:25;;;;;;;4.63;2.85;;;15.20;1.00;;;;;;4804854;29;20461;-47
2022/12/12 06:53:53;;;;;;;4.80;3.50;;;15.30;1.00;;;;;;4804797;29;20500;-47
2022/12/12 06:56:23;;;;;;;5.97;3.95;;;15.30;1.00;;;;;;4805196;29;20054;-47
2022/12/12 06:58:50;;;;;;;5.90;3.42;;;15.30;1.00;;;;;;4804996;29;20078;-49
2022/12/12 07:01:19;;;;;;;5.72;3.25;;;15.40;1.00;;;;;;4805046;29;20051;-51
2022/12/12 07:03:48;;;;;;;5.80;3.50;;;15.40;1.00;;;;;;4804535;29;20107;-45
2022/12/12 07:06:17;;;;;;;6.55;4.05;;;15.30;1.00;;;;;;4805028;29;20047;-51
2022/12/12 07:08:44;;;;;;;5.55;3.45;;;15.40;1.00;;;;;;4804956;29;20043;-45
2022/12/12 07:11:13;;;;;;;5.20;2.90;;;15.40;1.00;;;;;;4804706;29;20081;-48
2022/12/12 07:13:40;;;;;;;4.72;3.38;;;15.40;1.00;;;;;;4804685;29;20166;-47
2022/12/12 07:16:07;;;;;;;5.57;3.38;;;15.40;1.00;;;;;;4804813;29;20130;-46
2022/12/12 07:18:34;;;;;;;4.50;3.33;;;15.30;1.00;;;;;;4804417;29;20058;-47
2022/12/12 07:21:06;;;;;;;5.90;3.88;;;15.30;1.00;;;;;;4804633;29;20043;-45
2022/12/12 07:23:34;;;;;;;6.38;3.33;;;15.30;1.00;;;;;;4804109;29;20457;-48
2022/12/12 07:26:11;;;;;;;4.63;3.22;;;15.30;1.00;;;;;;4813647;29;20035;-47
2022/12/12 07:28:38;;;;;;;4.88;3.20;;;15.30;1.00;;;;;;4811367;29;20065;-47
2022/12/12 07:31:16;;;;;;;5.63;3.70;;;15.30;1.00;;;;;;4812593;29;20091;-46
2022/12/12 07:33:43;;;;;;;4.43;3.08;;;15.30;1.00;;;;;;4812383;29;20054;-46
2022/12/12 07:36:15;;;;;;;5.57;3.47;;;15.30;1.00;;;;;;4811160;29;20111;-49
2022/12/12 07:38:42;;;;;;;4.72;2.92;;;15.30;1.00;;;;;;4810851;29;20082;-49
2022/12/12 07:41:12;;;;;;;6.22;3.08;;;15.20;1.00;;;;;;4813250;29;20039;-45
2022/12/12 07:43:40;;;;;;;5.68;3.50;;;15.20;1.00;;;;;;4818693;29;20192;-47
2022/12/12 07:46:14;;;;;;;9.55;3.50;;;15.20;1.00;;;;;;4818110;29;20099;-46
2022/12/12 07:48:41;;;;;;;7.43;3.53;;;15.20;1.00;;;;;;4816588;29;20561;-45
2022/12/12 07:51:08;;;;;;;6.63;3.85;;;15.10;1.00;;;;;;4785583;29;20049;-45
2022/12/12 07:53:35;;;;;;;4.88;3.38;;;15.10;1.00;;;;;;4803549;29;20070;-44
2022/12/12 07:56:10;;;;;;;5.80;3.30;;;15.10;1.00;;;;;;4803853;29;20125;-45
2022/12/12 07:58:37;;;;;;;6.18;4.60;;;15.20;1.00;;;;;;4801733;29;20077;-48
2022/12/12 08:01:19;;;;;;;5.93;3.42;;;15.20;1.00;;;;;;4803970;29;20539;-46
2022/12/12 08:03:47;;;;;;;6.70;4.07;;;15.20;1.00;;;;;;4802485;29;20067;-47
2022/12/12 08:06:17;;;;;;;7.22;3.80;;;15.30;1.00;;;;;;4803686;29;20047;-45
2022/12/12 08:08:45;;;;;;;8.73;3.55;;;15.30;1.00;;;;;;4803761;29;20499;-46
2022/12/12 08:11:15;;;;;;;6.00;3.25;;;15.40;1.00;;;;;;4803852;29;20043;-46
2022/12/12 08:13:42;;;;;;;6.22;3.45;;;15.50;1.00;;;;;;4803705;29;20126;-47
2022/12/12 08:16:18;;;;;;;9.55;2.85;;;15.60;1.00;;;;;;4803845;29;20076;-45
2022/12/12 08:18:45;;;;;;;8.20;3.55;;;15.70;1.00;;;;;;4802288;29;20463;-47
2022/12/12 08:21:14;;;;;;;5.45;2.72;;;15.70;1.00;;;;;;4803639;29;20574;-46
2022/12/12 08:23:48;;;;;;;6.70;3.10;;;15.80;1.00;;;;;;4804255;29;20038;-47
2022/12/12 08:26:16;;;;;;;5.00;3.35;;;15.90;1.00;;;;;;4811757;29;20411;-46
2022/12/12 08:28:44;;;;;;;7.13;3.28;;;16.00;1.00;;;;;;4813438;29;20042;-48
2022/12/12 08:31:15;;;;;;;5.97;3.47;;;16.10;1.00;;;;;;4812770;29;20525;-47
2022/12/12 08:33:42;;;;;;;3.70;2.53;;;16.20;1.00;;;;;;4812936;29;20047;-45
2022/12/12 08:36:16;;;;;;;6.18;2.88;;;16.20;1.00;;;;;;4812871;29;20365;-47
2022/12/12 08:38:43;;;;;;;5.30;3.55;;;16.30;1.00;;;;;;4819314;29;20102;-47
2022/12/12 08:41:11;;;;;;;5.93;3.00;;;16.40;1.00;;;;;;4812310;29;20047;-45
2022/12/12 08:43:39;;;;;;;10.27;3.95;;;16.50;1.00;;;;;;4817180;29;20046;-47
2022/12/12 08:46:08;;;;;;;10.75;4.68;;;16.50;1.00;;;;;;4810372;29;20062;-44
2022/12/12 08:48:42;;;;;;;8.15;3.58;;;16.60;1.00;;;;;;4814095;29;20046;-46
2022/12/12 08:51:09;;;;;;;4.32;2.75;;;16.60;1.00;;;;;;4811666;29;20062;-45
2022/12/12 08:53:36;;;;;;;5.50;2.70;;;16.60;1.00;;;;;;4817280;29;20069;-44
2022/12/12 08:56:03;;;;;;;10.35;3.88;;;16.70;1.00;;;;;;4824959;29;20054;-45
2022/12/12 08:58:30;;;;;;;4.95;3.05;;;16.70;1.00;;;;;;4824805;29;20574;-46
2022/12/12 09:00:56;;;;;;;7.90;3.60;;;16.70;1.00;;;;;;4824865;29;20050;-48
2022/12/12 09:03:23;;;;;;;10.00;3.20;;;16.70;1.00;;;;;;4824748;29;20077;-49
2022/12/12 09:05:55;;;;;;;4.70;3.10;;;16.70;1.00;;;;;;4824828;29;20499;-48
2022/12/12 09:08:22;;;;;;;6.63;3.28;;;16.70;1.00;;;;;;4824859;29;20047;-51
2022/12/12 09:10:49;;;;;;;7.32;3.30;;;16.80;1.00;;;;;;4824707;29;20042;-44
2022/12/12 09:13:16;;;;;;;4.70;3.33;;;16.70;1.00;;;;;;4824423;29;20077;-48
2022/12/12 09:15:43;;;;;;;6.32;3.58;;;16.70;1.00;;;;;;4824481;29;20046;-47
2022/12/12 09:18:10;;;;;;;4.97;3.03;;;16.70;1.00;;;;;;4824776;29;20082;-44
2022/12/12 09:20:36;;;;;;;5.45;3.83;;;16.70;1.00;;;;;;4824578;29;20050;-44
2022/12/12 09:23:03;;;;;;;4.95;3.17;;;16.70;1.00;;;;;;4824365;29;20125;-45
2022/12/12 09:25:30;;;;;;;4.90;3.53;;;16.70;1.00;;;;;;4808327;29;20039;-48
2022/12/12 09:27:57;;;;;;;8.68;5.28;;;16.60;1.00;;;;;;4773386;29;20108;-45
2022/12/12 09:30:24;;;;;;;16.67;7.32;;;16.60;1.00;;;;;;4805661;29;20047;-44
2022/12/12 09:32:51;;;;;;;10.27;5.90;;;16.50;1.00;;;;;;4813509;29;20117;-45
2022/12/12 09:35:17;;;;;;;10.93;6.20;;;16.50;1.00;;;;;;4806056;29;20073;-46
2022/12/12 09:37:52;;;;;;;9.63;5.75;;;16.40;1.00;;;;;;4806091;29;20563;-46
2022/12/12 09:40:52;;;;;;;9.70;5.72;;;16.40;1.00;;;;;;4805996;29;20047;-47
2022/12/12 09:43:36;;;;;;;7.68;5.60;;;16.40;1.00;;;;;;4767912;30;20056;-47
2022/12/12 09:46:23;;;;;;;10.30;5.30;;;16.30;1.00;;;;;;4767943;30;20051;-46
2022/12/12 09:49:28;;;;;;;10.25;6.20;;;16.30;1.00;;;;;;4802107;29;20092;-46
2022/12/12 09:52:30;;;;;;;9.63;5.88;;;16.20;1.00;;;;;;4805930;29;20047;-49
2022/12/12 09:55:17;;;;;;;9.32;5.00;;;16.20;1.00;;;;;;4805013;29;20507;-49
2022/12/12 09:58:06;;;;;;;7.78;4.63;;;16.20;1.00;;;;;;4805982;29;20047;-45
2022/12/12 10:00:42;;;;;;;14.75;5.45;;;16.10;1.00;;;;;;4805793;29;20380;-46
2022/12/12 10:03:20;;;;;;;7.03;4.63;;;16.10;1.00;;;;;;4805598;29;20080;-48
2022/12/12 10:06:00;;;;;;;6.38;4.28;;;16.00;1.00;;;;;;4805803;29;20074;-47
2022/12/12 10:09:09;;;;;;;8.40;5.00;;;16.00;1.00;;;;;;4805787;29;20074;-47
2022/12/12 10:11:53;;;;;;;7.90;4.55;;;15.90;1.00;;;;;;4805744;29;20051;-48
2022/12/12 10:14:41;;;;;;;6.70;4.15;;;15.90;1.00;;;;;;4805511;29;20411;-47
2022/12/12 10:17:31;;;;;;;9.65;4.63;;;15.90;1.00;;;;;;4805658;29;20128;-46
2022/12/12 10:20:18;;;;;;;5.25;3.72;;;15.80;1.00;;;;;;4792133;29;20141;-48
2022/12/12 10:22:51;;;;;;;7.50;5.05;;;15.80;1.00;;;;;;4805191;29;20051;-47
2022/12/12 10:25:39;;;;;;;7.30;4.47;;;15.80;1.00;;;;;;4805446;29;20066;-49
2022/12/12 10:28:12;;;;;;;8.77;4.82;;;15.70;1.00;;;;;;4805330;29;20461;-46
2022/12/12 10:31:05;;;;;;;6.72;4.57;;;15.70;1.00;;;;;;4805357;29;20108;-46
2022/12/12 10:33:58;;;;;;;8.13;4.65;;;15.70;1.00;;;;;;4805203;29;20043;-45
2022/12/12 10:36:35;;;;;;;8.48;4.95;;;15.60;1.00;;;;;;4805203;29;20055;-45
2022/12/12 10:39:18;;;;;;;8.30;4.95;;;15.60;1.00;;;;;;4805176;29;20058;-48
2022/12/12 10:41:56;;;;;;;7.65;4.65;;;15.50;1.00;;;;;;4805152;29;20100;-46
2022/12/12 10:45:02;;;;;;;7.00;4.53;;;15.50;1.00;;;;;;4804902;29;20066;-46
2022/12/12 10:47:29;;;;;;;7.53;4.55;;;15.50;1.00;;;;;;4805030;29;20054;-45
2022/12/12 10:50:18;;;;;;;7.07;5.07;;;15.50;1.00;;;;;;4805299;29;20478;-45
2022/12/12 10:52:45;;;;;;;11.68;5.38;;;15.40;1.00;;;;;;4804789;29;20050;-51
2022/12/12 10:55:45;;;;;;;8.45;4.80;;;15.40;1.00;;;;;;4804992;29;20047;-46
2022/12/12 10:58:12;;;;;;;9.07;5.60;;;15.40;1.00;;;;;;4803231;29;20074;-46
2022/12/12 11:00:41;;;;;;;7.35;5.10;;;15.30;1.00;;;;;;4804801;29;20050;-50
2022/12/12 11:03:17;;;;;;;7.57;4.63;;;15.30;1.00;;;;;;4804775;29;20411;-46
2022/12/12 11:05:45;;;;;;;8.35;5.05;;;15.30;1.00;;;;;;4804788;29;20415;-47
2022/12/12 11:08:30;;;;;;;8.73;4.97;;;15.20;1.00;;;;;;4804859;29;20499;-51
2022/12/12 11:11:02;;;;;;;9.50;5.28;;;15.30;1.00;;;;;;4804790;29;20085;-52
2022/12/12 11:13:29;;;;;;;9.88;5.50;;;15.20;1.00;;;;;;4804604;29;20054;-52
2022/12/12 11:16:05;;;;;;;11.00;6.20;;;15.20;1.00;;;;;;4804631;29;20058;-46
2022/12/12 11:18:39;;;;;;;7.38;5.07;;;15.20;1.00;;;;;;4804687;29;20568;-45
2022/12/12 11:21:11;;;;;;;8.85;5.85;;;15.10;1.00;;;;;;4804637;29;20043;-46
2022/12/12 11:23:46;;;;;;;7.37;5.63;;;15.10;1.00;;;;;;4804648;29;20561;-45
2022/12/12 11:26:17;;;;;;;7.40;5.10;;;15.10;1.00;;;;;;4804770;29;20460;-46
2022/12/12 11:28:51;;;;;;;9.13;5.82;;;15.10;1.00;;;;;;4804662;29;20051;-46
2022/12/12 11:31:22;;;;;;;8.23;4.82;;;15.00;1.00;;;;;;4804777;29;20085;-46
2022/12/12 11:33:52;;;;;;;7.40;4.45;;;15.00;1.00;;;;;;4804383;29;20055;-46
2022/12/12 11:36:27;;;;;;;6.47;4.68;;;15.00;1.00;;;;;;4804661;29;20078;-45
2022/12/12 11:38:55;;;;;;;11.68;4.80;;;15.00;1.00;;;;;;4804513;29;20083;-46
2022/12/12 11:41:22;;;;;;;8.13;5.03;;;14.90;1.00;;;;;;4804470;29;20043;-46
2022/12/12 11:43:49;;;;;;;8.02;5.13;;;14.90;1.00;;;;;;4804377;29;20054;-46
2022/12/12 11:46:19;;;;;;;7.72;4.93;;;14.90;1.00;;;;;;4804573;29;20054;-45
2022/12/12 11:48:46;;;;;;;6.93;5.00;;;14.90;1.00;;;;;;4804672;29;20054;-46
2022/12/12 11:51:28;;;;;;;9.63;5.57;;;14.80;1.00;;;;;;4804400;29;20133;-47
2022/12/12 11:53:55;;;;;;;7.55;5.15;;;14.80;1.00;;;;;;4804287;29;20130;-45
2022/12/12 11:56:42;;;;;;;6.43;5.00;;;14.80;1.00;;;;;;4804475;29;20046;-45
2022/12/12 11:59:46;;;;;;;8.63;5.32;;;14.80;1.00;;;;;;4807706;29;20511;-44
2022/12/12 12:02:25;;;;;;;9.27;5.55;;;14.80;1.00;;;;;;4820531;29;20043;-45
2022/12/12 12:05:13;;;;;;;12.98;6.30;;;14.80;1.00;;;;;;4807012;29;20058;-46
2022/12/12 12:08:18;;;;;;;9.20;6.15;;;14.70;1.00;;;;;;4814396;29;20445;-47
2022/12/12 12:11:13;;;;;;;9.32;5.70;;;14.70;1.00;;;;;;4773293;30;20117;-47
2022/12/12 12:14:24;;;;;;;9.27;5.90;;;14.70;1.00;;;;;;4789482;30;20521;-48
2022/12/12 12:16:54;;;;;;;11.55;5.65;;;14.70;1.00;;;;;;4780238;30;20074;-45
2022/12/12 12:19:30;;;;;;;12.68;6.20;;;14.70;1.00;;;;;;4789520;29;20055;-45
2022/12/12 12:22:09;;;;;;;7.80;4.95;;;14.60;1.00;;;;;;4789475;30;20108;-46
2022/12/12 12:24:45;;;;;;;10.35;5.28;;;14.60;1.00;;;;;;4789347;30;20046;-47
2022/12/12 12:27:24;;;;;;;11.75;6.05;;;14.60;1.00;;;;;;4773325;30;20465;-47
2022/12/12 12:30:29;;;;;;;8.65;5.18;;;14.60;1.00;;;;;;4789511;29;20043;-46
2022/12/12 12:33:38;;;;;;;12.45;6.15;;;14.60;1.00;;;;;;4787595;30;20059;-50
2022/12/12 12:36:14;;;;;;;10.02;5.80;;;14.60;1.00;;;;;;4789335;30;20051;-48
2022/12/12 12:38:56;;;;;;;11.63;6.32;;;14.50;1.00;;;;;;4789261;29;20488;-45
2022/12/12 12:41:31;;;;;;;8.60;5.57;;;14.50;1.00;;;;;;4789016;30;20100;-46
2022/12/12 12:44:18;;;;;;;8.82;5.00;;;14.50;1.00;;;;;;4789243;30;20082;-46
2022/12/12 12:47:06;;;;;;;8.70;5.78;;;14.50;1.00;;;;;;4789323;30;20047;-46
2022/12/12 12:49:45;;;;;;;9.43;5.13;;;14.50;1.00;;;;;;4789326;29;20043;-47
2022/12/12 12:52:37;;;;;;;9.23;5.78;;;14.50;1.00;;;;;;4789136;30;20058;-46
2022/12/12 12:55:14;;;;;;;7.53;5.35;;;14.50;1.00;;;;;;4789028;30;20047;-46
2022/12/12 12:57:43;;;;;;;8.95;5.55;;;14.40;1.00;;;;;;4789240;30;20051;-49
2022/12/12 13:00:23;;;;;;;10.13;5.28;;;14.40;1.00;;;;;;4788960;29;20055;-46
2022/12/12 13:03:16;;;;;;;8.70;5.18;;;14.40;1.00;;;;;;4788634;30;20043;-46
2022/12/12 13:05:49;;;;;;;8.50;5.55;;;14.40;1.00;;;;;;4783936;30;20055;-46
2022/12/12 13:08:25;;;;;;;6.82;4.85;;;14.40;1.00;;;;;;4787684;30;20558;-46
2022/12/12 13:10:58;;;;;;;10.13;5.75;;;14.30;1.00;;;;;;4788545;29;20047;-46
2022/12/12 13:13:31;;;;;;;7.18;5.00;;;14.30;1.00;;;;;;4788521;30;20085;-48
2022/12/12 13:16:20;;;;;;;8.77;4.97;;;14.30;1.00;;;;;;4788710;30;20055;-50
2022/12/12 13:18:57;;;;;;;10.27;5.65;;;14.30;1.00;;;;;;4788568;29;20091;-50
2022/12/12 13:21:34;;;;;;;9.77;6.03;;;14.30;1.00;;;;;;4788505;30;20043;-46
2022/12/12 13:24:07;;;;;;;9.10;6.07;;;14.20;1.00;;;;;;4788378;30;20066;-47
2022/12/12 13:27:05;;;;;;;8.93;5.00;;;14.20;1.00;;;;;;4788464;30;20100;-47
2022/12/12 13:29:49;;;;;;;9.00;5.35;;;14.20;1.00;;;;;;4788373;29;20082;-48
2022/12/12 13:32:33;;;;;;;7.00;4.97;;;14.20;1.00;;;;;;4788298;30;20043;-47
2022/12/12 13:35:11;;;;;;;10.60;6.18;;;14.20;1.00;;;;;;4788354;30;20112;-47
2022/12/12 13:37:53;;;;;;;20.85;10.85;;;14.20;1.00;;;;;;4808834;29;20050;-48
2022/12/12 13:40:32;;;;;;;21.63;12.55;;;14.10;1.00;;;;;;4812644;29;20069;-47
2022/12/12 13:43:02;;;;;;;19.10;10.32;;;14.10;1.00;;;;;;4814035;29;20583;-46
2022/12/12 13:45:41;;;;;;;21.23;11.18;;;14.10;1.00;;;;;;4817881;29;20439;-47
2022/12/12 13:48:28;;;;;;;22.65;11.15;;;14.10;1.00;;;;;;4815389;29;20051;-46
2022/12/12 13:51:26;;;;;;;16.95;9.95;;;14.00;1.00;;;;;;4808690;29;20046;-47